createdAt,value
2019-06-10T00:02:05.919Z,1.30
2019-06-10T00:04:37.590Z,1.67
2019-06-10T00:07:07.560Z,1.83
2019-06-10T00:09:37.142Z,1.95
2019-06-10T00:12:08.154Z,2.90
2019-06-10T00:14:38.273Z,1.80
2019-06-10T00:17:10.984Z,2.22
2019-06-10T00:19:41.522Z,1.80
2019-06-10T00:22:11.485Z,1.40
2019-06-10T00:24:41.420Z,1.85
2019-06-10T00:27:11.847Z,3.80
2019-06-10T00:29:41.684Z,1.40
2019-06-10T00:32:13.180Z,2.30
2019-06-10T00:34:42.328Z,1.35
2019-06-10T00:37:14.542Z,1.47
2019-06-10T00:39:42.979Z,1.35
2019-06-10T00:42:15.076Z,1.37
2019-06-10T00:44:43.330Z,1.45
2019-06-10T00:47:14.986Z,1.75
2019-06-10T00:49:43.891Z,1.30
2019-06-10T00:52:13.994Z,1.57
2019-06-10T00:54:43.559Z,1.60
2019-06-10T00:57:13.785Z,1.57
2019-06-10T00:59:43.734Z,1.82
2019-06-10T01:02:14.504Z,1.90
2019-06-10T01:04:44.207Z,1.57
2019-06-10T01:07:14.913Z,1.20
2019-06-10T01:09:44.361Z,1.60
2019-06-10T01:12:15.002Z,1.45
2019-06-10T01:14:44.447Z,1.37
2019-06-10T01:17:15.231Z,1.72
2019-06-10T01:19:44.946Z,1.90
2019-06-10T01:22:15.544Z,1.65
2019-06-10T01:24:45.206Z,1.37
2019-06-10T01:27:15.129Z,1.40
2019-06-10T01:29:44.689Z,1.57
2019-06-10T01:32:15.094Z,1.90
2019-06-10T01:34:44.627Z,1.42
2019-06-10T01:37:14.746Z,1.30
2019-06-10T01:39:45.041Z,1.40
2019-06-10T01:42:15.901Z,1.87
2019-06-10T01:44:46.239Z,1.82
2019-06-10T01:47:16.127Z,2.00
2019-06-10T01:49:46.617Z,1.47
2019-06-10T01:52:16.965Z,1.47
2019-06-10T01:54:46.905Z,1.77
2019-06-10T01:57:17.063Z,1.50
2019-06-10T01:59:47.071Z,1.33
2019-06-10T02:02:23.415Z,1.50
2019-06-10T02:04:51.749Z,2.35
2019-06-10T02:07:23.056Z,2.50
2019-06-10T02:09:52.363Z,1.50
2019-06-10T02:12:24.034Z,1.55
2019-06-10T02:14:52.881Z,1.65
2019-06-10T02:17:23.894Z,1.40
2019-06-10T02:19:53.119Z,1.62
2019-06-10T02:22:24.241Z,1.72
2019-06-10T02:24:53.306Z,1.80
2019-06-10T02:27:23.234Z,1.67
2019-06-10T02:29:52.832Z,1.90
2019-06-10T02:32:31.267Z,1.60
2019-06-10T02:35:08.197Z,1.97
2019-06-10T02:37:31.917Z,1.50
2019-06-10T02:39:55.411Z,1.30
2019-06-10T02:42:31.080Z,1.40
2019-06-10T02:45:03.756Z,2.12
2019-06-10T02:47:37.268Z,1.60
2019-06-10T02:50:08.267Z,1.72
2019-06-10T02:52:38.235Z,1.60
2019-06-10T02:55:05.764Z,1.67
2019-06-10T02:57:40.101Z,1.55
2019-06-10T03:00:19.859Z,1.55
2019-06-10T03:02:39.732Z,4.10
2019-06-10T03:05:09.147Z,1.60
2019-06-10T03:07:38.510Z,1.95
2019-06-10T03:10:07.884Z,2.45
2019-06-10T03:12:37.227Z,2.20
2019-06-10T03:15:07.836Z,2.00
2019-06-10T03:17:37.323Z,2.30
2019-06-10T03:20:06.991Z,1.72
2019-06-10T03:22:36.420Z,2.02
2019-06-10T03:27:56.462Z,1.70
2019-06-10T03:30:47.437Z,2.15
2019-06-10T03:33:13.754Z,1.50
2019-06-10T03:36:03.292Z,1.80
2019-06-10T03:42:07.154Z,1.75
2019-06-10T03:44:36.499Z,1.70
2019-06-10T03:47:43.164Z,1.63
2019-06-10T03:50:13.516Z,1.95
2019-06-10T03:54:05.568Z,1.90
2019-06-10T03:56:32.344Z,3.08
2019-06-10T03:59:02.762Z,2.37
2019-06-10T04:01:46.424Z,3.40
2019-06-10T04:04:25.181Z,4.35
2019-06-10T04:06:59.186Z,2.77
2019-06-10T04:09:28.905Z,2.40
2019-06-10T04:11:58.401Z,2.22
2019-06-10T04:14:41.997Z,2.08
2019-06-10T04:17:35.659Z,2.25
2019-06-10T04:21:08.222Z,3.10
2019-06-10T04:23:49.524Z,2.50
2019-06-10T04:26:24.503Z,2.20
2019-06-10T04:29:37.679Z,2.20
2019-06-10T04:32:07.069Z,3.52
2019-06-10T04:34:57.955Z,2.03
2019-06-10T04:37:34.244Z,2.42
2019-06-10T04:40:10.134Z,3.33
2019-06-10T04:42:43.610Z,3.27
2019-06-10T04:45:14.073Z,2.83
2019-06-10T04:47:43.764Z,3.77
2019-06-10T04:54:54.649Z,2.30
2019-06-10T04:57:26.445Z,2.33
2019-06-10T04:59:55.531Z,2.08
2019-06-10T05:02:26.823Z,2.65
2019-06-10T05:05:02.863Z,2.50
2019-06-10T05:11:14.815Z,3.20
2019-06-10T05:13:50.019Z,3.80
2019-06-10T05:16:54.282Z,2.80
2019-06-10T05:19:33.663Z,2.42
2019-06-10T05:22:22.708Z,2.27
2019-06-10T05:24:54.736Z,2.27
2019-06-10T05:27:45.575Z,2.35
2019-06-10T05:30:29.466Z,2.00
2019-06-10T05:33:28.617Z,2.83
2019-06-10T05:35:58.559Z,2.23
2019-06-10T05:39:30.801Z,2.60
2019-06-10T05:42:03.315Z,2.08
2019-06-10T05:45:43.070Z,2.30
2019-06-10T05:48:18.455Z,2.35
2019-06-10T05:51:00.176Z,2.02
2019-06-10T05:53:48.109Z,1.90
2019-06-10T05:59:35.960Z,2.62
2019-06-10T06:02:05.824Z,1.87
2019-06-10T06:04:36.054Z,2.47
2019-06-10T06:07:05.174Z,2.53
2019-06-10T06:09:35.227Z,2.00
2019-06-10T06:12:04.730Z,1.90
2019-06-10T06:14:35.619Z,2.00
2019-06-10T06:17:03.868Z,2.30
2019-06-10T06:19:33.689Z,2.10
2019-06-10T06:22:03.142Z,3.17
2019-06-10T06:24:33.917Z,2.22
2019-06-10T06:27:02.564Z,2.15
2019-06-10T06:29:33.889Z,1.85
2019-06-10T06:32:02.697Z,1.63
2019-06-10T06:34:35.103Z,2.77
2019-06-10T06:37:02.275Z,1.85
2019-06-10T06:39:33.467Z,1.67
2019-06-10T06:42:02.315Z,1.98
2019-06-10T06:44:33.045Z,1.83
2019-06-10T06:47:02.761Z,4.10
2019-06-10T06:49:35.188Z,2.22
2019-06-10T06:52:03.687Z,2.37
2019-06-10T06:54:33.411Z,2.40
2019-06-10T06:57:03.602Z,2.50
2019-06-10T06:59:34.286Z,3.07
2019-06-10T07:02:03.229Z,2.80
2019-06-10T07:04:34.223Z,2.60
2019-06-10T07:07:03.189Z,2.27
2019-06-10T07:09:35.799Z,3.10
2019-06-10T07:12:05.584Z,3.02
2019-06-10T07:14:37.301Z,1.60
2019-06-10T07:17:05.270Z,1.82
2019-06-10T07:19:35.103Z,1.90
2019-06-10T07:22:12.258Z,1.70
2019-06-10T07:24:37.895Z,1.57
2019-06-10T07:27:05.488Z,1.37
2019-06-10T07:29:36.766Z,1.80
2019-06-10T07:32:04.629Z,2.10
2019-06-10T07:34:35.516Z,1.92
2019-06-10T07:37:03.831Z,1.75
2019-06-10T07:39:34.661Z,1.52
2019-06-10T07:42:03.165Z,3.08
2019-06-10T07:44:33.356Z,2.33
2019-06-10T07:47:02.748Z,2.45
2019-06-10T07:49:33.470Z,1.90
2019-06-10T07:52:12.974Z,1.98
2019-06-10T07:54:33.241Z,2.17
2019-06-10T07:57:02.882Z,1.67
2019-06-10T07:59:32.223Z,2.30
2019-06-10T08:02:03.064Z,3.00
2019-06-10T08:04:33.589Z,1.80
2019-06-10T08:07:03.356Z,2.80
2019-06-10T08:09:33.681Z,1.67
2019-06-10T08:12:05.844Z,1.70
2019-06-10T08:14:33.166Z,2.08
2019-06-10T08:17:03.109Z,3.35
2019-06-10T08:19:37.667Z,2.30
2019-06-10T08:22:03.055Z,2.20
2019-06-10T08:24:32.955Z,2.17
2019-06-10T08:27:02.668Z,2.17
2019-06-10T08:29:33.012Z,2.00
2019-06-10T08:32:03.249Z,2.08
2019-06-10T08:34:32.957Z,4.25
2019-06-10T08:37:04.393Z,1.72
2019-06-10T08:39:33.526Z,1.80
2019-06-10T08:42:03.176Z,2.25
2019-06-10T08:44:32.859Z,1.72
2019-06-10T08:47:03.105Z,2.50
2019-06-10T08:49:32.745Z,2.67
2019-06-10T08:52:02.702Z,2.20
2019-06-10T08:54:32.451Z,1.77
2019-06-10T08:57:04.382Z,1.70
2019-06-10T08:59:32.580Z,1.60
2019-06-10T09:02:02.977Z,2.27
2019-06-10T09:04:33.098Z,1.72
2019-06-10T09:07:04.206Z,1.85
2019-06-10T09:09:33.519Z,1.80
2019-06-10T09:12:03.659Z,1.35
2019-06-10T09:14:32.733Z,1.90
2019-06-10T09:17:03.367Z,1.35
2019-06-10T09:19:33.181Z,1.75
2019-06-10T09:22:03.468Z,1.67
2019-06-10T09:24:32.919Z,1.67
2019-06-10T09:27:02.956Z,1.37
2019-06-10T09:29:32.943Z,2.47
2019-06-10T09:32:02.252Z,1.82
2019-06-10T09:34:33.109Z,1.65
2019-06-10T09:37:03.975Z,2.55
2019-06-10T09:39:32.861Z,1.60
2019-06-10T09:42:06.149Z,1.72
2019-06-10T09:44:33.353Z,1.77
2019-06-10T09:47:04.290Z,2.15
2019-06-10T09:49:33.653Z,2.50
2019-06-10T09:52:03.349Z,2.25
2019-06-10T09:54:33.488Z,2.70
2019-06-10T09:57:03.291Z,2.00
2019-06-10T09:59:32.493Z,2.30
2019-06-10T10:02:03.631Z,2.05
2019-06-10T10:04:32.642Z,2.42
2019-06-10T10:07:03.070Z,2.10
2019-06-10T10:09:36.775Z,2.15
2019-06-10T10:12:03.544Z,1.70
2019-06-10T10:14:33.496Z,1.70
2019-06-10T10:17:04.792Z,2.40
2019-06-10T10:19:33.045Z,2.20
2019-06-10T10:22:03.047Z,2.37
2019-06-10T10:24:34.049Z,2.15
2019-06-10T10:27:06.931Z,2.05
2019-06-10T10:29:33.423Z,2.65
2019-06-10T10:32:02.661Z,2.35
2019-06-10T10:34:33.311Z,3.20
2019-06-10T10:37:02.866Z,2.02
2019-06-10T10:39:32.769Z,2.60
2019-06-10T10:42:03.316Z,2.87
2019-06-10T10:44:32.301Z,1.90
2019-06-10T10:47:03.056Z,2.05
2019-06-10T10:49:32.595Z,1.70
2019-06-10T10:52:02.632Z,1.80
2019-06-10T10:54:36.366Z,1.80
2019-06-10T10:57:02.743Z,2.17
2019-06-10T10:59:33.264Z,2.00
2019-06-10T11:02:02.511Z,2.85
2019-06-10T11:04:32.858Z,2.40
2019-06-10T11:07:02.045Z,2.30
2019-06-10T11:09:33.092Z,1.92
2019-06-10T11:12:03.496Z,1.77
2019-06-10T11:14:34.020Z,2.80
2019-06-10T11:17:03.046Z,2.50
2019-06-10T11:19:32.946Z,2.05
2019-06-10T11:22:02.964Z,2.67
2019-06-10T11:24:37.671Z,2.15
2019-06-10T11:27:03.111Z,2.30
2019-06-10T11:29:33.019Z,2.08
2019-06-10T11:32:03.042Z,1.85
2019-06-10T11:34:33.265Z,2.47
2019-06-10T11:37:02.463Z,1.82
2019-06-10T11:39:33.809Z,2.17
2019-06-10T11:42:02.907Z,2.30
2019-06-10T11:44:33.878Z,2.35
2019-06-10T11:47:03.192Z,2.47
2019-06-10T11:49:32.166Z,2.25
2019-06-10T11:52:03.047Z,2.98
2019-06-10T11:54:34.021Z,2.40
2019-06-10T11:57:01.845Z,3.30
2019-06-10T11:59:32.736Z,2.55
2019-06-10T12:02:05.679Z,4.00
2019-06-10T12:04:31.913Z,3.08
2019-06-10T12:07:02.402Z,2.95
2019-06-10T12:09:33.184Z,2.00
2019-06-10T12:12:02.406Z,2.70
2019-06-10T12:14:33.124Z,2.17
2019-06-10T12:19:34.064Z,2.20
2019-06-10T12:22:07.089Z,2.20
2019-06-10T12:24:34.146Z,2.33
2019-06-10T12:27:05.113Z,2.37
2019-06-10T12:29:33.768Z,2.40
2019-06-10T12:32:06.882Z,2.25
2019-06-10T12:34:33.393Z,1.95
2019-06-10T12:37:10.677Z,2.83
2019-06-10T12:39:32.880Z,2.80
2019-06-10T12:42:06.190Z,2.40
2019-06-10T12:44:33.676Z,3.37
2019-06-10T12:47:07.457Z,3.25
2019-06-10T12:49:32.889Z,1.95
2019-06-10T12:52:05.357Z,2.50
2019-06-10T12:54:32.663Z,2.20
2019-06-10T12:57:04.704Z,3.65
2019-06-10T12:59:32.558Z,2.05
2019-06-10T13:02:10.607Z,2.35
2019-06-10T13:04:32.846Z,3.30
2019-06-10T13:07:05.194Z,2.27
2019-06-10T13:09:32.787Z,2.50
2019-06-10T13:12:02.051Z,3.22
2019-06-10T13:14:32.551Z,2.10
2019-06-10T13:17:03.016Z,2.45
2019-06-10T13:19:34.332Z,2.52
2019-06-10T13:22:05.972Z,2.98
2019-06-10T13:24:33.850Z,2.30
2019-06-10T13:27:04.775Z,2.23
2019-06-10T13:29:34.589Z,2.05
2019-06-10T13:32:06.203Z,3.17
2019-06-10T13:34:34.917Z,2.43
2019-06-10T13:37:06.992Z,2.60
2019-06-10T13:39:35.196Z,2.20
2019-06-10T13:42:06.862Z,2.08
2019-06-10T13:44:35.108Z,2.30
2019-06-10T13:47:07.097Z,3.08
2019-06-10T13:49:34.354Z,2.25
2019-06-10T13:52:05.783Z,2.42
2019-06-10T13:54:34.641Z,2.10
2019-06-10T13:57:06.867Z,2.72
2019-06-10T13:59:35.417Z,2.40
2019-06-10T14:02:06.370Z,2.77
2019-06-10T14:04:34.653Z,1.87
2019-06-10T14:07:07.388Z,2.10
2019-06-10T14:09:35.590Z,2.97
2019-06-10T14:12:06.017Z,2.58
2019-06-10T14:14:35.399Z,2.10
2019-06-10T14:17:05.737Z,2.60
2019-06-10T14:19:34.701Z,2.10
2019-06-10T14:22:05.893Z,3.40
2019-06-10T14:24:33.950Z,2.77
2019-06-10T14:27:04.426Z,2.90
2019-06-10T14:29:33.184Z,2.40
2019-06-10T14:32:03.549Z,2.10
2019-06-10T14:34:32.669Z,1.90
2019-06-10T14:37:01.817Z,2.70
2019-06-10T14:39:32.782Z,2.72
2019-06-10T14:42:03.813Z,2.10
2019-06-10T14:44:32.595Z,3.02
2019-06-10T14:47:02.942Z,2.40
2019-06-10T14:49:32.984Z,1.90
2019-06-10T14:52:02.777Z,2.10
2019-06-10T14:54:32.239Z,2.50
2019-06-10T14:57:02.682Z,2.37
2019-06-10T14:59:31.736Z,2.10
2019-06-10T15:02:02.636Z,2.20
2019-06-10T15:04:33.016Z,2.75
2019-06-10T15:07:02.928Z,2.40
2019-06-10T15:09:33.439Z,2.15
2019-06-10T15:12:02.890Z,2.80
2019-06-10T15:14:32.832Z,2.40
2019-06-10T15:17:02.760Z,2.10
2019-06-10T15:19:33.242Z,3.05
2019-06-10T15:22:03.073Z,3.13
2019-06-10T15:24:33.501Z,2.15
2019-06-10T15:27:10.159Z,2.33
2019-06-10T15:29:32.960Z,2.27
2019-06-10T15:32:10.392Z,2.37
2019-06-10T15:34:32.662Z,2.30
2019-06-10T15:37:02.792Z,2.20
2019-06-10T15:39:33.311Z,2.33
2019-06-10T15:42:03.043Z,2.22
2019-06-10T15:44:52.480Z,2.10
2019-06-10T15:47:03.069Z,2.20
2019-06-10T15:49:32.811Z,2.80
2019-06-10T15:52:03.300Z,2.77
2019-06-10T15:54:33.354Z,2.65
2019-06-10T15:57:03.166Z,2.90
2019-06-10T15:59:32.399Z,2.47
2019-06-10T16:02:02.633Z,3.65
2019-06-10T16:04:34.987Z,2.55
2019-06-10T16:07:02.763Z,2.75
2019-06-10T16:09:32.231Z,3.08
2019-06-10T16:12:03.016Z,3.53
2019-06-10T16:14:33.226Z,2.60
2019-06-10T16:17:03.163Z,2.77
2019-06-10T16:19:34.170Z,2.95
2019-06-10T16:22:03.308Z,2.83
2019-06-10T16:24:33.279Z,2.70
2019-06-10T16:27:03.358Z,2.85
2019-06-10T16:29:33.332Z,3.62
2019-06-10T16:32:02.639Z,3.10
2019-06-10T16:34:32.544Z,2.77
2019-06-10T16:37:02.382Z,2.85
2019-06-10T16:39:32.550Z,3.15
2019-06-10T16:42:03.013Z,2.35
2019-06-10T16:44:32.965Z,2.90
2019-06-10T16:47:03.290Z,2.67
2019-06-10T16:49:32.877Z,3.00
2019-06-10T16:52:03.041Z,3.03
2019-06-10T16:54:32.949Z,3.00
2019-06-10T16:57:03.865Z,2.95
2019-06-10T16:59:32.961Z,2.70
2019-06-10T17:02:02.358Z,3.08
2019-06-10T17:04:33.094Z,3.70
2019-06-10T17:07:02.269Z,4.08
2019-06-10T17:09:32.828Z,3.53
2019-06-10T17:12:02.233Z,2.50
2019-06-10T17:14:33.540Z,3.00
2019-06-10T17:17:03.524Z,2.87
2019-06-10T17:19:33.319Z,2.75
2019-06-10T17:22:02.434Z,3.47
2019-06-10T17:24:33.882Z,3.20
2019-06-10T17:27:02.905Z,3.15
2019-06-10T17:29:33.498Z,3.02
2019-06-10T17:32:02.745Z,3.20
2019-06-10T17:34:33.947Z,2.60
2019-06-10T17:37:03.110Z,3.77
2019-06-10T17:39:34.576Z,2.85
2019-06-10T17:42:02.885Z,2.77
2019-06-10T17:44:32.507Z,3.85
2019-06-10T17:47:02.294Z,3.42
2019-06-10T17:49:34.415Z,2.98
2019-06-10T17:52:02.537Z,3.50
2019-06-10T17:54:32.454Z,3.02
2019-06-10T17:57:02.390Z,3.30
2019-06-10T17:59:33.592Z,3.05
2019-06-10T18:02:02.996Z,3.52
2019-06-10T18:04:31.893Z,3.27
2019-06-10T18:07:02.235Z,3.90
2019-06-10T18:09:34.694Z,3.00
2019-06-10T18:12:02.489Z,3.05
2019-06-10T18:14:34.280Z,3.42
2019-06-10T18:17:02.242Z,3.17
2019-06-10T18:19:34.156Z,3.10
2019-06-10T18:22:03.041Z,3.37
2019-06-10T18:24:32.975Z,3.80
2019-06-10T18:27:02.484Z,4.10
2019-06-10T18:29:33.670Z,3.58
2019-06-10T18:32:03.471Z,3.15
2019-06-10T18:34:34.596Z,3.55
2019-06-10T18:37:02.901Z,3.40
2019-06-10T18:39:31.944Z,4.90
2019-06-10T18:42:03.183Z,3.62
2019-06-10T18:44:33.931Z,3.60
2019-06-10T18:47:02.924Z,3.30
2019-06-10T18:49:33.984Z,3.35
2019-06-10T18:52:02.473Z,5.03
2019-06-10T18:54:34.135Z,3.37
2019-06-10T18:57:03.217Z,3.98
2019-06-10T18:59:34.654Z,3.62
2019-06-10T19:02:06.186Z,3.80
2019-06-10T19:04:36.474Z,3.58
2019-06-10T19:07:04.629Z,3.42
2019-06-10T19:09:37.317Z,4.17
2019-06-10T19:12:08.906Z,4.25
2019-06-10T19:14:38.350Z,3.62
2019-06-10T19:17:07.571Z,4.92
2019-06-10T19:19:38.134Z,3.60
2019-06-10T19:22:09.480Z,3.77
2019-06-10T19:24:43.932Z,3.90
2019-06-10T19:27:11.831Z,3.72
2019-06-10T19:29:50.079Z,4.60
2019-06-10T19:32:13.221Z,4.08
2019-06-10T19:34:48.225Z,3.80
2019-06-10T19:37:15.165Z,3.60
2019-06-10T19:39:50.238Z,4.50
2019-06-10T19:42:14.311Z,3.60
2019-06-10T19:44:45.559Z,3.62
2019-06-10T19:47:13.537Z,4.12
2019-06-10T19:49:43.615Z,3.60
2019-06-10T19:52:12.734Z,4.78
2019-06-10T19:54:43.845Z,4.07
2019-06-10T19:57:12.874Z,4.30
2019-06-10T20:00:01.211Z,4.37
2019-06-10T20:02:12.509Z,4.25
2019-06-10T20:04:42.826Z,3.77
2019-06-10T20:07:12.830Z,4.28
2019-06-10T20:09:44.640Z,4.53
2019-06-10T20:12:13.994Z,4.67
2019-06-10T20:14:44.573Z,7.13
2019-06-10T20:17:13.741Z,4.62
2019-06-10T20:19:44.317Z,4.50
2019-06-10T20:22:12.998Z,4.70
2019-06-10T20:24:44.812Z,4.90
2019-06-10T20:27:12.211Z,4.28
2019-06-10T20:29:42.968Z,5.30
2019-06-10T20:32:11.496Z,5.03
2019-06-10T20:34:41.390Z,5.47
2019-06-10T20:37:10.316Z,5.10
2019-06-10T20:39:40.570Z,5.53
2019-06-10T20:42:09.621Z,4.72
2019-06-10T20:44:38.426Z,5.20
2019-06-10T20:47:07.223Z,5.22
2019-06-10T20:49:37.667Z,4.83
2019-06-10T20:52:11.520Z,5.15
2019-06-10T20:54:38.230Z,5.65
2019-06-10T20:57:07.305Z,5.10
2019-06-10T20:59:36.089Z,4.80
2019-06-10T21:02:04.991Z,5.10
2019-06-10T21:04:34.243Z,5.22
2019-06-10T21:07:03.820Z,4.83
2019-06-10T21:09:33.325Z,5.85
2019-06-10T21:12:02.208Z,5.83
2019-06-10T21:14:33.117Z,5.40
2019-06-10T21:17:02.993Z,4.70
2019-06-10T21:19:33.093Z,5.25
2019-06-10T21:22:02.757Z,6.17
2019-06-10T21:24:32.342Z,5.67
2019-06-10T21:27:01.363Z,6.05
2019-06-10T21:29:32.175Z,6.03
2019-06-10T21:32:03.301Z,5.72
2019-06-10T21:34:32.707Z,6.40
2019-06-10T21:37:03.183Z,6.40
2019-06-10T21:39:32.226Z,5.62
2019-06-10T21:42:02.240Z,7.05
2019-06-10T21:44:32.052Z,6.10
2019-06-10T21:47:02.539Z,6.10
2019-06-10T21:49:32.220Z,6.33
2019-06-10T21:52:02.890Z,7.00
2019-06-10T21:54:33.048Z,5.90
2019-06-10T21:57:02.640Z,5.53
2019-06-10T21:59:32.189Z,7.05
2019-06-10T22:02:02.287Z,6.22
2019-06-10T22:04:32.662Z,5.90
2019-06-10T22:07:03.164Z,5.95
2019-06-10T22:09:32.333Z,5.30
2019-06-10T22:12:02.922Z,5.12
2019-06-10T22:14:32.999Z,5.87
2019-06-10T22:17:03.073Z,5.37
2019-06-10T22:19:32.325Z,5.58
2019-06-10T22:22:02.730Z,6.53
2019-06-10T22:24:32.206Z,5.20
2019-06-10T22:27:02.715Z,5.72
2019-06-10T22:29:32.267Z,5.30
2019-06-10T22:32:03.062Z,7.70
2019-06-10T22:34:32.973Z,5.58
2019-06-10T22:37:03.180Z,5.57
2019-06-10T22:39:32.547Z,6.07
2019-06-10T22:42:02.990Z,5.65
2019-06-10T22:44:33.114Z,5.28
2019-06-10T22:47:02.924Z,6.70
2019-06-10T22:49:32.827Z,6.45
2019-06-10T22:52:01.970Z,4.92
2019-06-10T22:54:32.226Z,4.30
2019-06-10T22:57:02.885Z,4.03
2019-06-10T22:59:31.533Z,3.58
2019-06-10T23:02:02.823Z,3.70
2019-06-10T23:04:33.099Z,2.75
2019-06-10T23:07:03.028Z,3.12
2019-06-10T23:09:31.509Z,2.90
2019-06-10T23:12:02.664Z,2.17
2019-06-10T23:14:33.055Z,2.13
2019-06-10T23:17:02.936Z,1.75
2019-06-10T23:19:33.090Z,1.27
2019-06-10T23:22:02.923Z,2.40
2019-06-10T23:24:32.387Z,0.82
2019-06-10T23:27:03.049Z,0.83
2019-06-10T23:29:32.437Z,1.80
2019-06-10T23:32:06.481Z,0.65
2019-06-10T23:34:33.043Z,0.80
2019-06-10T23:37:01.989Z,0.90
2019-06-10T23:39:33.237Z,1.27
2019-06-10T23:42:01.186Z,1.20
2019-06-10T23:44:29.870Z,2.10
2019-06-10T23:46:59.350Z,0.70
2019-06-10T23:49:28.457Z,1.10
2019-06-10T23:51:57.617Z,0.73
2019-06-10T23:54:27.639Z,1.47
2019-06-10T23:56:56.619Z,1.70
2019-06-10T23:59:25.552Z,1.07
